createdAt,value
2018-04-29T00:02:10.480Z,4.28
2018-04-29T00:04:37.973Z,4.18
2018-04-29T00:07:05.477Z,5.45
2018-04-29T00:09:32.970Z,5.25
2018-04-29T00:12:00.478Z,5.18
2018-04-29T00:14:27.974Z,5.00
2018-04-29T00:16:55.482Z,5.40
2018-04-29T00:19:22.972Z,5.30
2018-04-29T00:21:50.476Z,5.55
2018-04-29T00:24:17.973Z,4.85
2018-04-29T00:26:45.476Z,5.65
2018-04-29T00:29:12.969Z,4.95
2018-04-29T00:31:40.485Z,4.80
2018-04-29T00:34:07.985Z,4.93
2018-04-29T00:36:35.497Z,4.85
2018-04-29T00:39:02.996Z,4.82
2018-04-29T00:41:30.499Z,5.00
2018-04-29T00:43:57.992Z,5.90
2018-04-29T00:46:25.497Z,5.00
2018-04-29T00:48:52.981Z,4.25
2018-04-29T00:51:41.063Z,5.12
2018-04-29T00:54:08.557Z,4.70
2018-04-29T00:56:36.070Z,5.80
2018-04-29T00:59:03.630Z,6.50
2018-04-29T01:01:31.094Z,7.00
2018-04-29T01:03:58.588Z,5.30
2018-04-29T01:06:26.100Z,5.22
2018-04-29T01:08:53.591Z,6.90
2018-04-29T01:11:21.101Z,5.90
2018-04-29T01:13:48.592Z,6.05
2018-04-29T01:16:16.097Z,6.53
2018-04-29T01:18:43.594Z,5.85
2018-04-29T01:21:11.100Z,6.22
2018-04-29T01:23:38.585Z,5.05
2018-04-29T01:26:06.085Z,5.22
2018-04-29T01:28:34.365Z,4.97
2018-04-29T01:31:01.869Z,4.43
2018-04-29T01:33:29.348Z,3.50
2018-04-29T01:35:56.862Z,4.22
2018-04-29T01:38:24.360Z,3.60
2018-04-29T01:40:51.873Z,3.58
2018-04-29T01:43:19.373Z,3.20
2018-04-29T01:45:46.864Z,3.75
2018-04-29T01:48:14.373Z,4.20
2018-04-29T01:50:41.858Z,3.12
2018-04-29T01:53:09.353Z,3.30
2018-04-29T01:55:36.850Z,3.95
2018-04-29T01:58:04.348Z,3.53
2018-04-29T02:00:31.843Z,4.53
2018-04-29T02:02:59.350Z,3.65
2018-04-29T02:05:26.838Z,4.10
2018-04-29T02:07:54.349Z,3.97
2018-04-29T02:10:21.835Z,4.55
2018-04-29T02:12:49.343Z,4.43
2018-04-29T02:15:16.828Z,4.47
2018-04-29T02:17:44.341Z,4.65
2018-04-29T02:20:11.834Z,4.07
2018-04-29T02:22:39.341Z,4.53
2018-04-29T02:25:06.834Z,4.78
2018-04-29T02:27:34.341Z,5.68
2018-04-29T02:30:01.830Z,4.20
2018-04-29T02:32:29.337Z,4.70
2018-04-29T02:34:56.841Z,4.20
2018-04-29T02:37:24.352Z,4.53
2018-04-29T02:39:51.850Z,4.97
2018-04-29T02:42:19.354Z,4.00
2018-04-29T02:44:46.855Z,4.68
2018-04-29T02:47:14.355Z,4.53
2018-04-29T02:49:41.841Z,4.03
2018-04-29T02:52:09.377Z,3.67
2018-04-29T02:54:36.866Z,4.45
2018-04-29T02:57:04.353Z,3.97
2018-04-29T02:59:31.870Z,4.03
2018-04-29T03:01:59.367Z,4.65
2018-04-29T03:04:26.869Z,3.97
2018-04-29T03:06:54.356Z,4.85
2018-04-29T03:09:21.869Z,4.45
2018-04-29T03:11:49.368Z,4.50
2018-04-29T03:14:16.869Z,4.55
2018-04-29T03:16:44.349Z,4.28
2018-04-29T03:19:11.855Z,4.62
2018-04-29T03:21:39.342Z,4.20
2018-04-29T03:24:06.837Z,4.90
2018-04-29T03:26:34.327Z,5.20
2018-04-29T03:29:01.825Z,4.22
2018-04-29T03:31:29.312Z,4.68
2018-04-29T03:33:56.814Z,5.25
2018-04-29T03:36:24.302Z,5.32
2018-04-29T03:38:51.798Z,3.87
2018-04-29T03:41:19.289Z,4.57
2018-04-29T03:43:46.793Z,5.20
2018-04-29T03:46:14.273Z,4.70
2018-04-29T03:48:41.772Z,5.03
2018-04-29T03:51:09.257Z,5.68
2018-04-29T03:53:36.751Z,5.78
2018-04-29T03:56:04.282Z,4.45
2018-04-29T03:58:43.326Z,6.12
2018-04-29T04:01:22.652Z,5.15
2018-04-29T04:04:05.902Z,4.45
2018-04-29T04:06:33.377Z,5.50
2018-04-29T04:09:00.876Z,4.78
2018-04-29T04:11:28.365Z,4.60
2018-04-29T04:13:55.875Z,4.85
2018-04-29T04:16:23.365Z,5.10
2018-04-29T04:18:50.867Z,4.90
2018-04-29T04:21:18.344Z,4.60
2018-04-29T04:23:45.908Z,5.37
2018-04-29T04:26:13.337Z,4.90
2018-04-29T04:28:40.846Z,4.55
2018-04-29T04:31:08.333Z,5.40
2018-04-29T04:33:35.838Z,5.25
2018-04-29T04:36:03.325Z,5.32
2018-04-29T04:38:30.827Z,6.28
2018-04-29T04:40:59.077Z,5.20
2018-04-29T04:43:26.556Z,5.35
2018-04-29T04:45:54.058Z,5.75
2018-04-29T04:48:21.547Z,5.50
2018-04-29T04:50:49.073Z,5.40
2018-04-29T04:53:16.570Z,4.97
2018-04-29T04:55:44.066Z,6.15
2018-04-29T04:58:11.595Z,5.20
2018-04-29T05:00:39.056Z,6.07
2018-04-29T05:03:06.823Z,4.70
2018-04-29T05:05:34.333Z,5.95
2018-04-29T05:08:01.845Z,6.43
2018-04-29T05:10:29.353Z,7.03
2018-04-29T05:12:56.846Z,6.12
2018-04-29T05:15:24.345Z,6.12
2018-04-29T05:17:51.833Z,5.07
2018-04-29T05:20:19.341Z,9.15
2018-04-29T05:22:46.830Z,7.40
2018-04-29T05:25:14.331Z,5.80
2018-04-29T05:27:41.817Z,6.45
2018-04-29T05:30:09.317Z,5.75
2018-04-29T05:32:36.803Z,5.28
2018-04-29T05:35:04.307Z,6.95
2018-04-29T05:37:32.558Z,7.22
2018-04-29T05:40:00.067Z,7.15
2018-04-29T05:42:27.555Z,4.68
2018-04-29T05:44:55.057Z,6.22
2018-04-29T05:47:22.546Z,6.15
2018-04-29T05:49:50.062Z,5.68
2018-04-29T05:52:17.557Z,5.87
2018-04-29T05:54:45.061Z,6.55
2018-04-29T05:57:12.549Z,5.85
2018-04-29T05:59:40.061Z,5.18
2018-04-29T06:02:07.544Z,5.30
2018-04-29T06:04:35.053Z,5.10
2018-04-29T06:07:02.550Z,4.95
2018-04-29T06:09:30.049Z,4.80
2018-04-29T06:11:57.561Z,3.90
2018-04-29T06:14:25.890Z,4.40
2018-04-29T06:16:53.385Z,3.60
2018-04-29T06:19:21.639Z,4.10
2018-04-29T06:21:49.157Z,4.12
2018-04-29T06:24:16.649Z,4.10
2018-04-29T06:26:44.157Z,3.75
2018-04-29T06:29:11.682Z,3.70
2018-04-29T06:31:39.197Z,4.25
2018-04-29T06:34:06.685Z,4.15
2018-04-29T06:36:34.185Z,3.78
2018-04-29T06:39:01.681Z,3.90
2018-04-29T06:41:29.193Z,3.83
2018-04-29T06:43:56.685Z,3.70
2018-04-29T06:46:24.194Z,4.00
2018-04-29T06:48:51.694Z,3.87
2018-04-29T06:51:19.198Z,3.55
2018-04-29T06:53:46.695Z,4.40
2018-04-29T06:56:14.196Z,3.80
2018-04-29T06:58:41.685Z,3.42
2018-04-29T07:01:09.211Z,4.32
2018-04-29T07:03:36.709Z,3.90
2018-04-29T07:06:04.258Z,3.90
2018-04-29T07:08:32.516Z,4.95
2018-04-29T07:11:00.020Z,4.53
2018-04-29T07:13:27.514Z,3.72
2018-04-29T07:15:55.022Z,3.90
2018-04-29T07:18:22.513Z,3.60
2018-04-29T07:20:50.018Z,3.70
2018-04-29T07:23:17.505Z,3.60
2018-04-29T07:25:45.030Z,4.00
2018-04-29T07:28:12.515Z,4.40
2018-04-29T07:30:40.019Z,3.60
2018-04-29T07:33:07.513Z,3.92
2018-04-29T07:35:35.029Z,4.15
2018-04-29T07:38:02.533Z,4.10
2018-04-29T07:40:30.021Z,3.20
2018-04-29T07:42:57.558Z,3.25
2018-04-29T07:45:25.054Z,3.40
2018-04-29T07:47:52.563Z,3.25
2018-04-29T07:50:20.056Z,3.00
2018-04-29T07:52:47.559Z,3.47
2018-04-29T07:55:15.088Z,3.50
2018-04-29T07:57:42.607Z,3.78
2018-04-29T08:00:10.130Z,3.50
2018-04-29T08:02:37.633Z,3.12
2018-04-29T08:05:05.146Z,3.80
2018-04-29T08:07:32.680Z,3.87
2018-04-29T08:10:00.159Z,4.05
2018-04-29T08:12:27.675Z,3.72
2018-04-29T08:14:55.161Z,3.30
2018-04-29T08:17:22.749Z,3.50
2018-04-29T08:19:50.181Z,3.45
2018-04-29T08:22:17.723Z,4.53
2018-04-29T08:24:45.232Z,2.95
2018-04-29T08:27:12.739Z,3.72
2018-04-29T08:29:40.226Z,3.80
2018-04-29T08:32:08.501Z,4.22
2018-04-29T08:34:36.017Z,3.50
2018-04-29T08:37:03.550Z,3.65
2018-04-29T08:39:31.043Z,3.75
2018-04-29T08:41:58.616Z,3.42
2018-04-29T08:44:26.061Z,3.50
2018-04-29T08:46:54.330Z,3.05
2018-04-29T08:49:21.847Z,3.65
2018-04-29T08:51:49.336Z,3.50
2018-04-29T08:54:16.825Z,3.90
2018-04-29T08:56:45.110Z,3.50
2018-04-29T08:59:13.363Z,3.35
2018-04-29T09:01:40.891Z,4.30
2018-04-29T09:04:08.412Z,3.75
2018-04-29T09:06:35.928Z,3.85
2018-04-29T09:09:03.420Z,3.97
2018-04-29T09:11:30.935Z,3.67
2018-04-29T09:13:58.433Z,3.97
2018-04-29T09:16:25.924Z,3.67
2018-04-29T09:18:53.450Z,3.17
2018-04-29T09:21:20.938Z,3.97
2018-04-29T09:23:48.447Z,3.15
2018-04-29T09:26:15.973Z,3.60
2018-04-29T09:28:45.245Z,3.05
2018-04-29T09:31:12.769Z,3.40
2018-04-29T09:33:40.270Z,3.50
2018-04-29T09:36:07.805Z,3.42
2018-04-29T09:38:35.324Z,4.18
2018-04-29T09:41:02.808Z,2.95
2018-04-29T09:43:30.441Z,4.50
2018-04-29T09:45:57.909Z,3.58
2018-04-29T09:48:25.445Z,3.45
2018-04-29T09:50:52.966Z,3.12
2018-04-29T09:53:20.464Z,3.30
2018-04-29T09:55:48.003Z,3.50
2018-04-29T09:58:15.513Z,3.40
2018-04-29T10:00:48.580Z,3.80
2018-04-29T10:03:16.086Z,3.37
2018-04-29T10:05:43.609Z,3.87
2018-04-29T10:08:11.141Z,3.70
2018-04-29T10:10:38.634Z,3.17
2018-04-29T10:13:06.181Z,3.67
2018-04-29T10:15:33.717Z,3.60
2018-04-29T10:18:01.263Z,6.00
2018-04-29T10:20:28.745Z,3.40
2018-04-29T10:22:56.343Z,4.80
2018-04-29T10:25:23.908Z,4.03
2018-04-29T10:27:51.477Z,3.70
2018-04-29T10:30:18.961Z,3.90
2018-04-29T10:32:46.500Z,4.22
2018-04-29T10:35:13.981Z,3.95
2018-04-29T10:37:41.485Z,3.85
2018-04-29T10:40:09.031Z,4.43
2018-04-29T10:51:36.957Z,3.60
2018-04-29T10:54:04.478Z,4.53
2018-04-29T10:56:32.048Z,3.60
2018-04-29T10:58:59.520Z,3.53
2018-04-29T11:01:27.010Z,4.30
2018-04-29T11:03:54.541Z,4.37
2018-04-29T11:06:22.041Z,4.95
2018-04-29T11:08:49.593Z,3.87
2018-04-29T11:11:17.109Z,4.25
2018-04-29T11:13:44.646Z,3.62
2018-04-29T11:16:12.158Z,3.78
2018-04-29T11:18:39.722Z,3.78
2018-04-29T11:21:07.221Z,3.22
2018-04-29T11:23:34.747Z,3.27
2018-04-29T11:26:02.251Z,4.28
2018-04-29T11:28:29.780Z,4.00
2018-04-29T11:30:57.286Z,3.47
2018-04-29T11:33:24.821Z,3.97
2018-04-29T11:35:52.331Z,3.77
2018-04-29T11:38:19.837Z,3.80
2018-04-29T11:40:47.328Z,4.20
2018-04-29T11:43:14.841Z,4.03
2018-04-29T11:45:42.350Z,3.57
2018-04-29T11:48:09.858Z,3.87
2018-04-29T11:50:37.350Z,3.00
2018-04-29T11:53:04.874Z,4.10
2018-04-29T11:55:32.404Z,4.00
2018-04-29T11:57:59.957Z,3.80
2018-04-29T12:00:27.479Z,3.70
2018-04-29T12:02:54.982Z,3.73
2018-04-29T12:05:22.507Z,3.73
2018-04-29T12:07:50.006Z,3.83
2018-04-29T12:10:17.525Z,3.70
2018-04-29T12:12:45.026Z,3.70
2018-04-29T12:15:12.553Z,3.60
2018-04-29T12:17:40.082Z,3.50
2018-04-29T12:20:07.591Z,4.03
2018-04-29T12:22:35.155Z,4.10
2018-04-29T12:25:02.721Z,3.73
2018-04-29T12:27:30.269Z,4.40
2018-04-29T12:29:57.781Z,3.57
2018-04-29T12:32:25.282Z,3.20
2018-04-29T12:34:52.841Z,3.20
2018-04-29T12:37:20.362Z,4.40
2018-04-29T12:39:47.926Z,4.10
2018-04-29T12:42:15.409Z,3.00
2018-04-29T12:44:42.919Z,3.17
2018-04-29T12:47:10.414Z,3.60
2018-04-29T12:49:37.923Z,2.60
2018-04-29T12:52:05.708Z,4.20
2018-04-29T12:54:33.205Z,3.97
2018-04-29T12:57:00.719Z,3.23
2018-04-29T12:59:28.237Z,4.20
2018-04-29T13:01:55.821Z,3.23
2018-04-29T13:04:23.348Z,4.23
2018-04-29T13:06:50.829Z,2.77
2018-04-29T13:09:18.365Z,3.07
2018-04-29T13:11:45.917Z,3.37
2018-04-29T13:14:13.445Z,3.03
2018-04-29T13:16:40.961Z,3.00
2018-04-29T13:19:08.453Z,3.57
2018-04-29T13:21:35.981Z,2.70
2018-04-29T13:24:03.493Z,2.73
2018-04-29T13:26:31.044Z,2.73
2018-04-29T13:28:59.333Z,3.23
2018-04-29T13:31:26.837Z,3.43
2018-04-29T13:33:54.372Z,3.00
2018-04-29T13:36:21.937Z,2.90
2018-04-29T13:38:49.426Z,3.37
2018-04-29T13:41:16.946Z,3.00
2018-04-29T13:43:44.564Z,3.00
2018-04-29T13:46:12.092Z,3.17
2018-04-29T13:48:39.597Z,2.80
2018-04-29T13:51:07.120Z,2.93
2018-04-29T13:53:34.625Z,2.63
2018-04-29T13:56:02.170Z,2.77
2018-04-29T13:58:30.082Z,2.60
2018-04-29T14:00:57.663Z,2.73
2018-04-29T14:03:25.991Z,2.17
2018-04-29T14:05:53.971Z,2.63
2018-04-29T14:08:21.477Z,2.60
2018-04-29T14:10:49.011Z,2.70
2018-04-29T14:13:16.509Z,3.37
2018-04-29T14:15:44.037Z,3.23
2018-04-29T14:18:12.321Z,2.77
2018-04-29T14:20:39.833Z,3.30
2018-04-29T14:23:07.545Z,2.93
2018-04-29T14:25:35.057Z,4.60
2018-04-29T14:28:02.547Z,3.73
2018-04-29T14:30:30.073Z,3.50
2018-04-29T14:32:58.333Z,3.50
2018-04-29T14:35:26.669Z,4.73
2018-04-29T14:37:54.165Z,3.87
2018-04-29T14:40:21.687Z,3.60
2018-04-29T14:42:49.260Z,2.90
2018-04-29T14:45:17.554Z,3.97
2018-04-29T14:47:45.096Z,3.10
2018-04-29T14:50:12.598Z,4.43
2018-04-29T14:52:40.113Z,4.20
2018-04-29T14:55:07.615Z,4.13
2018-04-29T14:57:35.137Z,3.33
2018-04-29T15:00:02.711Z,3.43
2018-04-29T15:02:30.260Z,4.80
2018-04-29T15:04:57.793Z,4.00
2018-04-29T15:07:25.312Z,3.50
2018-04-29T15:09:52.825Z,3.90
2018-04-29T15:12:20.396Z,3.67
2018-04-29T15:14:47.912Z,5.10
2018-04-29T15:17:15.457Z,5.50
2018-04-29T15:19:50.294Z,4.10
2018-04-29T15:22:17.831Z,3.83
2018-04-29T15:24:45.331Z,4.60
2018-04-29T15:27:12.867Z,4.60
2018-04-29T15:29:40.372Z,4.70
2018-04-29T15:32:07.890Z,3.37
2018-04-29T15:34:35.432Z,4.10
2018-04-29T15:37:02.966Z,4.43
2018-04-29T15:39:30.489Z,4.10
2018-04-29T15:41:58.103Z,3.60
2018-04-29T15:44:25.610Z,4.80
2018-04-29T15:46:53.114Z,4.60
2018-04-29T15:49:21.380Z,4.20
2018-04-29T15:51:48.889Z,4.17
2018-04-29T15:54:16.407Z,4.70
2018-04-29T15:56:43.947Z,3.87
2018-04-29T15:59:12.210Z,4.30
2018-04-29T16:01:39.713Z,4.50
2018-04-29T16:04:07.215Z,4.10
2018-04-29T16:06:34.769Z,3.70
2018-04-29T16:09:02.269Z,4.07
2018-04-29T16:11:29.868Z,4.23
2018-04-29T16:13:57.382Z,4.00
2018-04-29T16:16:24.893Z,3.73
2018-04-29T16:18:52.398Z,4.00
2018-04-29T16:21:19.953Z,5.13
2018-04-29T16:23:47.478Z,4.90
2018-04-29T16:26:14.984Z,4.00
2018-04-29T16:28:42.532Z,5.07
2018-04-29T16:31:10.030Z,5.07
2018-04-29T16:33:37.561Z,4.10
2018-04-29T16:36:05.077Z,3.70
2018-04-29T16:38:32.605Z,4.73
2018-04-29T16:41:00.135Z,4.10
2018-04-29T16:43:27.640Z,4.17
2018-04-29T16:45:55.139Z,3.70
2018-04-29T16:48:22.653Z,4.30
2018-04-29T16:50:50.136Z,4.00
2018-04-29T16:53:17.645Z,4.30
2018-04-29T16:55:45.142Z,6.80
2018-04-29T16:58:12.657Z,5.50
2018-04-29T17:00:40.154Z,8.97
2018-04-29T17:03:07.702Z,4.57
2018-04-29T17:05:35.188Z,5.00
2018-04-29T17:08:02.699Z,4.60
2018-04-29T17:10:30.190Z,3.83
2018-04-29T17:12:57.704Z,3.70
2018-04-29T17:15:25.261Z,3.80
2018-04-29T17:17:52.768Z,3.70
2018-04-29T17:20:20.253Z,3.93
2018-04-29T17:22:47.756Z,4.50
2018-04-29T17:25:15.246Z,3.23
2018-04-29T17:27:42.813Z,4.67
2018-04-29T17:30:10.339Z,4.23
2018-04-29T17:32:37.925Z,4.50
2018-04-29T17:35:05.422Z,4.07
2018-04-29T17:37:32.946Z,4.80
2018-04-29T17:40:00.452Z,4.17
2018-04-29T17:48:15.285Z,3.77
2018-04-29T17:50:42.777Z,3.50
2018-04-29T17:53:10.305Z,3.92
2018-04-29T17:55:38.558Z,3.97
2018-04-29T17:58:06.074Z,3.90
2018-04-29T18:00:33.589Z,4.30
2018-04-29T18:03:01.104Z,4.37
2018-04-29T18:05:28.629Z,3.90
2018-04-29T18:07:56.148Z,3.60
2018-04-29T18:10:23.656Z,3.83
2018-04-29T18:12:51.183Z,4.50
2018-04-29T18:15:18.686Z,4.85
2018-04-29T18:17:46.200Z,4.20
2018-04-29T18:20:13.697Z,4.03
2018-04-29T18:22:41.219Z,4.20
2018-04-29T18:25:08.714Z,3.62
2018-04-29T18:27:36.285Z,4.05
2018-04-29T18:30:03.772Z,3.75
2018-04-29T18:32:31.285Z,3.80
2018-04-29T18:34:58.804Z,5.15
2018-04-29T18:37:26.298Z,3.87
2018-04-29T18:39:53.833Z,4.50
2018-04-29T18:42:21.354Z,4.43
2018-04-29T18:44:48.955Z,3.40
2018-04-29T18:47:16.389Z,5.10
2018-04-29T18:49:44.822Z,4.07
2018-04-29T18:52:12.325Z,4.22
2018-04-29T18:54:39.836Z,4.10
2018-04-29T18:57:07.329Z,4.22
2018-04-29T18:59:34.843Z,3.90
2018-04-29T19:02:02.344Z,4.20
2018-04-29T19:04:29.866Z,4.65
2018-04-29T19:06:57.369Z,4.65
2018-04-29T19:09:24.889Z,3.97
2018-04-29T19:11:52.403Z,4.37
2018-04-29T19:14:19.909Z,3.72
2018-04-29T19:16:47.417Z,4.40
2018-04-29T19:19:15.690Z,4.00
2018-04-29T19:21:43.181Z,3.85
2018-04-29T19:24:10.786Z,3.50
2018-04-29T19:26:38.229Z,5.00
2018-04-29T19:29:05.751Z,5.03
2018-04-29T19:31:33.343Z,4.70
2018-04-29T19:34:00.799Z,4.50
2018-04-29T19:36:28.290Z,4.15
2018-04-29T19:38:56.557Z,4.43
2018-04-29T19:41:24.053Z,4.40
2018-04-29T19:43:51.614Z,5.10
2018-04-29T19:46:19.065Z,4.68
2018-04-29T19:48:46.578Z,4.97
2018-04-29T19:51:14.081Z,5.25
2018-04-29T19:53:41.601Z,4.72
2018-04-29T19:56:09.097Z,4.80
2018-04-29T19:58:37.373Z,5.43
2018-04-29T20:01:04.864Z,5.15
2018-04-29T20:03:32.423Z,5.53
2018-04-29T20:05:59.912Z,4.30
2018-04-29T20:08:27.409Z,5.60
2018-04-29T20:10:54.927Z,6.00
2018-04-29T20:13:22.426Z,5.72
2018-04-29T20:15:49.942Z,6.68
2018-04-29T20:18:17.465Z,4.50
2018-04-29T20:20:44.980Z,4.78
2018-04-29T20:23:12.497Z,5.15
2018-04-29T20:25:40.013Z,4.60
2018-04-29T20:28:07.514Z,4.75
2018-04-29T20:30:35.784Z,5.12
2018-04-29T20:33:03.299Z,7.22
2018-04-29T20:35:33.574Z,6.95
2018-04-29T20:38:01.279Z,7.43
2018-04-29T20:40:28.843Z,5.53
2018-04-29T20:42:56.344Z,6.37
2018-04-29T20:45:23.857Z,6.70
2018-04-29T20:47:52.077Z,6.12
2018-04-29T20:50:19.597Z,5.35
2018-04-29T20:52:47.114Z,5.72
2018-04-29T20:55:15.332Z,5.87
2018-04-29T21:12:31.601Z,6.45
2018-04-29T21:14:59.106Z,6.78
2018-04-29T21:17:26.664Z,6.22
2018-04-29T21:19:54.129Z,5.25
2018-04-29T21:22:21.652Z,5.70
2018-04-29T21:24:49.153Z,6.68
2018-04-29T21:27:16.644Z,6.57
2018-04-29T21:29:45.358Z,5.82
2018-04-29T21:32:14.493Z,4.85
2018-04-29T21:34:42.116Z,5.93
2018-04-29T21:37:09.609Z,5.78
2018-04-29T21:39:37.098Z,5.20
2018-04-29T21:42:04.626Z,5.43
2018-04-29T21:44:32.127Z,5.18
2018-04-29T21:46:59.635Z,5.95
2018-04-29T21:49:27.139Z,4.35
2018-04-29T21:51:54.657Z,4.60
2018-04-29T21:54:22.158Z,5.20
2018-04-29T21:56:49.682Z,5.62
2018-04-29T21:59:17.176Z,4.22
2018-04-29T22:01:44.687Z,4.43
2018-04-29T22:04:12.226Z,4.25
2018-04-29T22:06:39.704Z,4.50
2018-04-29T22:09:07.184Z,5.32
2018-04-29T22:11:34.690Z,4.55
2018-04-29T22:14:02.191Z,5.12
2018-04-29T22:16:29.711Z,6.00
2018-04-29T22:18:57.203Z,4.78
2018-04-29T22:21:24.710Z,4.90
2018-04-29T22:23:52.216Z,5.35
2018-04-29T22:26:20.498Z,4.62
2018-04-29T22:28:47.994Z,5.12
2018-04-29T22:31:15.513Z,4.65
2018-04-29T22:33:43.001Z,5.72
2018-04-29T22:36:10.505Z,5.35
2018-04-29T22:38:37.997Z,5.10
2018-04-29T22:41:05.518Z,5.50
2018-04-29T22:43:33.027Z,5.03
2018-04-29T22:46:00.537Z,5.12
2018-04-29T22:48:28.028Z,5.22
2018-04-29T22:50:55.534Z,4.75
2018-04-29T22:53:23.038Z,3.95
2018-04-29T22:55:50.546Z,5.35
2018-04-29T22:58:18.049Z,6.00
2018-04-29T23:00:45.557Z,5.00
2018-04-29T23:03:13.050Z,5.12
2018-04-29T23:05:40.558Z,4.53
2018-04-29T23:08:08.061Z,4.35
2018-04-29T23:19:33.746Z,4.40
2018-04-29T23:22:01.254Z,4.47
2018-04-29T23:24:28.739Z,4.03
2018-04-29T23:26:56.253Z,5.22
2018-04-29T23:29:23.744Z,5.70
2018-04-29T23:31:51.250Z,4.95
2018-04-29T23:34:18.739Z,4.72
2018-04-29T23:36:46.251Z,4.68
2018-04-29T23:39:13.747Z,5.60
2018-04-29T23:56:25.633Z,5.68
2018-04-29T23:58:53.130Z,6.10
